createdAt,value
2018-02-14T00:07:03.928Z,68.20
2018-02-14T00:17:05.608Z,68.60
2018-02-14T00:27:07.313Z,69.30
2018-02-14T00:37:08.859Z,69.70
2018-02-14T00:47:10.501Z,69.10
2018-02-14T00:57:14.601Z,69.60
2018-02-14T01:07:20.382Z,70.80
2018-02-14T01:17:22.917Z,71.30
2018-02-14T01:27:24.550Z,69.30
2018-02-14T01:37:26.821Z,67.70
2018-02-14T01:47:28.345Z,67.50
2018-02-14T01:57:29.950Z,68.10
2018-02-14T02:07:31.457Z,69.00
2018-02-14T02:17:33.036Z,69.50
2018-02-14T02:27:34.575Z,70.90
2018-02-14T02:37:37.217Z,71.60
2018-02-14T02:47:38.721Z,71.50
2018-02-14T02:57:40.288Z,71.00
2018-02-14T03:07:41.836Z,70.90
2018-02-14T03:17:43.392Z,70.40
2018-02-14T03:27:45.685Z,72.70
2018-02-14T03:37:47.294Z,72.70
2018-02-14T03:47:48.802Z,72.60
2018-02-14T03:57:50.567Z,72.30
2018-02-14T04:07:52.144Z,71.30
2018-02-14T04:17:53.724Z,71.50
2018-02-14T04:27:56.033Z,73.10
2018-02-14T04:37:58.361Z,73.30
2018-02-14T04:47:59.928Z,73.30
2018-02-14T04:58:01.540Z,73.50
2018-02-14T05:08:03.146Z,73.80
2018-02-14T05:18:04.657Z,74.50
2018-02-14T05:28:06.924Z,73.00
2018-02-14T05:38:08.473Z,73.00
2018-02-14T05:48:11.112Z,73.30
2018-02-14T05:58:12.753Z,73.20
2018-02-14T06:08:14.278Z,73.00
2018-02-14T06:18:15.842Z,71.70
2018-02-14T06:28:17.470Z,73.10
2018-02-14T06:38:19.023Z,73.70
2018-02-14T06:48:20.578Z,74.30
2018-02-14T06:58:22.162Z,74.00
2018-02-14T07:08:23.798Z,74.50
2018-02-14T07:18:26.078Z,70.70
2018-02-14T07:28:27.681Z,70.70
2018-02-14T07:38:29.253Z,66.40
2018-02-14T07:48:30.781Z,65.30
2018-02-14T07:58:32.325Z,64.40
2018-02-14T08:08:34.582Z,63.30
2018-02-14T08:18:36.184Z,63.30
2018-02-14T08:28:37.828Z,63.20
2018-02-14T08:38:40.211Z,60.60
2018-02-14T08:48:41.826Z,60.50
2018-02-14T08:58:43.360Z,58.50
2018-02-14T09:08:45.639Z,58.80
2018-02-14T09:18:47.154Z,58.80
2018-02-14T09:28:48.784Z,58.10
2018-02-14T09:38:50.349Z,57.50
2018-02-14T09:48:51.933Z,59.40
2018-02-14T09:58:53.544Z,59.50
2018-02-14T10:08:55.021Z,57.30
2018-02-14T10:18:56.629Z,56.30
2018-02-14T10:28:58.226Z,55.70
2018-02-14T10:38:59.950Z,56.50
2018-02-14T10:49:01.549Z,56.60
2018-02-14T10:59:03.213Z,53.90
2018-02-14T11:09:04.792Z,50.30
2018-02-14T11:19:06.270Z,45.90
2018-02-14T11:29:07.987Z,47.40
2018-02-14T11:39:10.310Z,47.20
2018-02-14T11:49:11.872Z,47.20
2018-02-14T11:59:13.436Z,45.70
2018-02-14T12:09:15.117Z,44.20
2018-02-14T12:19:16.697Z,44.50
2018-02-14T12:29:18.998Z,43.80
2018-02-14T12:39:20.533Z,43.80
2018-02-14T12:49:22.116Z,43.40
2018-02-14T12:59:24.704Z,43.80
2018-02-14T13:09:26.336Z,43.10
2018-02-14T13:19:27.896Z,42.70
2018-02-14T13:29:29.483Z,42.80
2018-02-14T13:39:31.801Z,42.20
2018-02-14T13:49:33.320Z,42.90
2018-02-14T13:59:35.007Z,42.20
2018-02-14T14:09:36.617Z,41.70
2018-02-14T14:19:38.203Z,42.20
2018-02-14T14:29:40.046Z,39.40
2018-02-14T14:39:42.580Z,40.50
2018-02-14T14:49:44.220Z,40.50
2018-02-14T14:59:45.824Z,40.30
2018-02-14T15:09:47.373Z,41.10
2018-02-14T15:19:48.984Z,40.70
2018-02-14T15:29:50.554Z,38.60
2018-02-14T15:39:52.010Z,38.50
2018-02-14T15:49:53.572Z,38.00
2018-02-14T15:59:55.157Z,38.80
2018-02-14T16:09:56.681Z,37.10
2018-02-14T16:20:00.310Z,38.50
2018-02-14T16:30:01.910Z,40.40
2018-02-14T16:40:03.539Z,40.90
2018-02-14T16:50:05.901Z,42.50
2018-02-14T17:00:07.513Z,42.50
2018-02-14T17:10:09.137Z,44.00
2018-02-14T17:20:10.714Z,45.20
2018-02-14T17:30:12.264Z,48.60
2018-02-14T17:40:14.568Z,50.60
2018-02-14T17:50:16.188Z,50.60
2018-02-14T18:00:19.173Z,51.80
2018-02-14T18:10:20.719Z,51.80
2018-02-14T18:20:23.016Z,52.80
2018-02-14T18:30:24.648Z,52.80
2018-02-14T18:40:26.224Z,53.50
2018-02-14T18:50:27.858Z,53.80
2018-02-14T19:00:29.462Z,54.50
2018-02-14T19:10:31.210Z,55.50
2018-02-14T19:20:32.806Z,55.10
2018-02-14T19:30:34.383Z,55.40
2018-02-14T19:40:35.974Z,58.40
2018-02-14T19:50:37.548Z,59.40
2018-02-14T20:00:39.153Z,62.50
2018-02-14T20:10:41.469Z,67.10
2018-02-14T20:20:43.808Z,67.70
2018-02-14T20:30:45.401Z,67.70
2018-02-14T20:40:46.977Z,68.80
2018-02-14T20:50:48.644Z,69.80
2018-02-14T21:00:50.385Z,70.30
2018-02-14T21:10:52.735Z,70.30
2018-02-14T21:20:54.297Z,70.20
2018-02-14T21:30:55.887Z,69.30
2018-02-14T21:40:57.531Z,70.20
2018-02-14T21:51:01.981Z,71.30
2018-02-14T22:01:06.053Z,71.90
2018-02-14T22:11:08.821Z,71.60
2018-02-14T22:21:10.379Z,70.30
2018-02-14T22:31:12.314Z,71.00
2018-02-14T22:41:13.872Z,71.30
2018-02-14T22:51:16.181Z,70.20
2018-02-14T23:01:17.738Z,70.20
2018-02-14T23:11:19.275Z,69.60
2018-02-14T23:21:20.895Z,69.30
2018-02-14T23:31:23.178Z,69.50
2018-02-14T23:41:24.750Z,69.40
2018-02-14T23:51:26.348Z,70.00
